Terminal Aerodrome Forecast
Issued by NWS Bismarck, ND

Home | Current Version | Previous Version | Graphics & Text | Print | Product List | Glossary On
Versions: 1 2 3 4 5 6 7 8 9 10 11 12 13
363
FTUS43 KBIS 242332
TAFISN
TAF
KISN 242332Z 2500/2524 01013G21KT P6SM FEW070
     FM250200 01007KT P6SM FEW090
     FM250500 16004KT P6SM SCT140
     FM250900 33004KT P6SM VCSH FEW070 BKN110
     FM251500 35011KT P6SM FEW060=

USA.gov is the U.S. government's official web portal to all federal, state and local government web resources and services.